Arabi, Georgia
Current Conditions -  °F | °C
As of 3:35 AM on Friday 28 Nov 2014 (Local Time) from KCKF Reporting Station
Clear Clear  
Wind Chill: 33°   Ceiling: Unl
Heat Index: 37°   Visibility: 10mi
Dew Point: 28°   Wind: 5mph
Humidity: 72%   Direction: 360°N
Pressure: 30.39"   Gusts: NA
Location:  31.83°N, 83.74°W
Report Text: KCKF 280835Z AUTO 36004KT 10SM CLR 03/M02 A3039 RMK AO2 T00261020
Loading
Personal Weather Stations






























Interactive Weather Map New forecast layout! Learn more

10-Day Weather Forecast

Advertisements
Track Severe Weather on mobile